MSC Ludovica — HPAF — position and weather

sailwx.info

Track history (hours):
 
Tides and Currents Weather Stations Pressure Air Temp Water Temp Dewpoint Dewpoint Depression Visibility Wind Speed Wind Dir Waves Ship Positions

MSC Ludovica

Last reported at 2015-Mar-29 03:31 UTC. Time now 2015-Mar-29 04:29 UTC.
Position N 53°35' E 008°32'.

Length 301 m; draft 11.1 m.

Type: Ship. MMSI: 351248000.

Date/timePositionNaut miles runAvg speedWind from/ knotsBaromVisibWave heightAir tempDewpointWater temp
2015-Mar-29 03:31N 53°35' E 008°32'0 0.0
2015-Mar-29 02:31N 53°35' E 008°32'0 0.0
2015-Mar-29 01:31N 53°35' E 008°32'0 0.0
2015-Mar-29 00:31N 53°35' E 008°32'0 0.0
2015-Mar-28 23:25N 53°35' E 008°32'0 0.0
2015-Mar-28 22:28N 53°35' E 008°32'0 0.0
2015-Mar-28 21:31N 53°35' E 008°32'0 0.0
2015-Mar-28 20:25N 53°35' E 008°32'0 0.1
2015-Mar-28 19:28N 53°35' E 008°32'0 0.1
2015-Mar-28 18:31N 53°35' E 008°32'0 0.0
2015-Mar-28 17:31N 53°35' E 008°32'0 0.0
2015-Mar-28 16:31N 53°35' E 008°32'0 0.0
2015-Mar-28 15:31N 53°35' E 008°32'0 0.0
2015-Mar-28 14:31N 53°35' E 008°32'0 0.0
2015-Mar-28 13:28N 53°35' E 008°32'0 0.0
2015-Mar-28 12:31N 53°35' E 008°32'0 0.0
2015-Mar-28 11:28N 53°35' E 008°32'0 0.0
2015-Mar-28 10:31N 53°35' E 008°32'0 0.0
2015-Mar-28 09:31N 53°35' E 008°32'0 0.0
2015-Mar-28 08:31N 53°35' E 008°32'0 0.0
2015-Mar-28 07:31N 53°35' E 008°32'0 0.0
2015-Mar-28 06:28N 53°35' E 008°32'0 0.0
2015-Mar-28 05:31N 53°35' E 008°32'0 0.0
2015-Mar-28 04:31N 53°35' E 008°32'0 0.3
2015-Mar-28 03:33N 53°35' E 008°32'1312.8
2015-Mar-28 02:33N 53°43' E 008°16'1716.5
2015-Mar-28 01:33N 53°52' E 007°52'1010.2
2015-Mar-28 00:33N 53°54' E 007°36'9 9.2
2015-Mar-27 23:33N 53°53' E 007°20'1210.9
2015-Mar-27 22:29N 53°51' E 007°01'1213.3
2015-Mar-27 21:33N 53°48' E 006°41'1413.6
2015-Mar-27 20:33N 53°45' E 006°18'1313.6
2015-Mar-27 19:33N 53°40' E 005°56'1313.5
2015-Mar-27 18:33N 53°36' E 005°35'1313.4
2015-Mar-27 17:34N 53°32' E 005°13'1313.1
2015-Mar-27 16:34N 53°27' E 004°53'1313.2
2015-Mar-27 15:33N 53°18' E 004°37'2913.8
2015-Mar-27 13:29N 52°52' E 004°16'3213.8
2015-Mar-27 11:10N 52°28' E 003°41'5214.3
2015-Mar-27 07:34N 52°12' E 002°21'1716.5
2015-Mar-27 06:33N 52°04' E 001°57'1716.5
2015-Mar-27 05:33N 51°49' E 001°48'1212.3
2015-Mar-27 04:33N 51°56' E 001°32'9 8.6
2015-Mar-27 03:31N 51°58' E 001°18'0 0.0
2015-Mar-27 02:31N 51°58' E 001°18'0 0.0
2015-Mar-27 01:31N 51°58' E 001°18'0 0.0
2015-Mar-27 00:31N 51°58' E 001°18'0 0.0
2015-Mar-26 23:31N 51°58' E 001°18'0 0.0
2015-Mar-26 22:31N 51°58' E 001°18'0 0.0
2015-Mar-26 21:31N 51°58' E 001°18'0 0.0
2015-Mar-26 20:31N 51°58' E 001°18'0 0.0
2015-Mar-26 19:31N 51°58' E 001°18'0 0.0
2015-Mar-26 18:31N 51°58' E 001°18'0 0.0
2015-Mar-26 17:31N 51°58' E 001°18'0 0.0
2015-Mar-26 16:31N 51°58' E 001°18'0 0.0
2015-Mar-26 15:31N 51°58' E 001°18'0 0.0
2015-Mar-26 14:31N 51°58' E 001°18'0 0.0
2015-Mar-26 13:31N 51°58' E 001°18'0 0.0
2015-Mar-26 12:31N 51°58' E 001°18'0 0.0
2015-Mar-26 11:31N 51°58' E 001°18'0 0.0
2015-Mar-26 10:31N 51°58' E 001°18'0 0.0
2015-Mar-26 09:31N 51°58' E 001°18'0 0.0
2015-Mar-26 08:31N 51°58' E 001°18'0 0.0
2015-Mar-26 07:31N 51°58' E 001°18'0 0.3
2015-Mar-26 06:34N 51°57' E 001°18'8 8.2
2015-Mar-26 05:33N 51°56' E 001°31'10 9.8
2015-Mar-26 04:33N 51°51' E 001°45'8 7.8
2015-Mar-26 03:34N 51°44' E 001°49'9 8.6
2015-Mar-26 02:34N 51°36' E 001°51'1414.5
2015-Mar-26 01:34N 51°24' E 002°06'1615.6
2015-Mar-26 00:34N 51°23' E 002°31'1515.2
2015-Mar-25 23:33N 51°25' E 002°55'1918.5
2015-Mar-25 22:34N 51°25' E 003°24'1313.3
2015-Mar-25 21:34N 51°22' E 003°45'1211.8
2015-Mar-25 20:34N 51°22' E 004°04'8 8.4
2015-Mar-25 19:34N 51°21' E 004°17'0 0.0
2015-Mar-25 18:34N 51°21' E 004°17'2 2.1
2015-Mar-25 17:30N 51°20' E 004°20'0 0.1
2015-Mar-25 16:33N 51°20' E 004°20'0 0.0
2015-Mar-25 15:33N 51°20' E 004°20'0 0.0
2015-Mar-25 14:33N 51°20' E 004°20'0 0.0
2015-Mar-25 13:33N 51°20' E 004°20'0 0.0
2015-Mar-25 12:33N 51°20' E 004°20'0 0.0
2015-Mar-25 11:33N 51°20' E 004°20'0 0.0
2015-Mar-25 10:33N 51°20' E 004°20'0 0.0
2015-Mar-25 09:33N 51°20' E 004°20'0 0.0
2015-Mar-25 08:33N 51°20' E 004°20'0 0.0
2015-Mar-25 07:33N 51°20' E 004°20'0 0.0
2015-Mar-25 06:33N 51°20' E 004°20'0 0.0
2015-Mar-25 05:33N 51°20' E 004°20'0 0.0
2015-Mar-25 04:33N 51°20' E 004°20'0 0.0
2015-Mar-25 03:27N 51°20' E 004°20'0 0.0
2015-Mar-25 02:33N 51°20' E 004°20'0 0.0
2015-Mar-25 01:33N 51°20' E 004°20'0 0.0
2015-Mar-25 00:33N 51°20' E 004°20'0 0.0
2015-Mar-24 23:33N 51°20' E 004°20'0 0.0
2015-Mar-24 22:30N 51°20' E 004°20'0 0.0
2015-Mar-24 21:33N 51°20' E 004°20'0 0.0
2015-Mar-24 20:33N 51°20' E 004°20'0 0.0
2015-Mar-24 19:27N 51°20' E 004°20'0 0.0
2015-Mar-24 18:30N 51°20' E 004°20'0 0.0
2015-Mar-24 17:33N 51°20' E 004°20'0 0.3
2015-Mar-24 16:33N 51°20' E 004°20'2 1.9
2015-Mar-24 15:31N 51°21' E 004°17'0 0.5
2015-Mar-24 14:34N 51°21' E 004°17'5 4.8
2015-Mar-24 13:34N 51°23' E 004°10'9 9.3
2015-Mar-24 12:33N 51°22' E 003°55'1212.4
2015-Mar-24 11:34N 51°26' E 003°36'1010.1
2015-Mar-24 10:33N 51°24' E 003°20'1211.7
2015-Mar-24 09:33N 51°25' E 003°01'1111.4
2015-Mar-24 08:33N 51°23' E 002°43'8 3.8
2015-Mar-24 06:27N 51°22' E 002°31'8 8.2
2015-Mar-24 05:31N 51°19' E 002°20'1010.0
2015-Mar-24 04:34N 51°14' E 002°06'1312.8
2015-Mar-24 03:33N 51°08' E 001°48'1514.8
2015-Mar-24 02:33N 50°58' E 001°31'1615.0
2015-Mar-24 01:31N 50°44' E 001°21'1714.8
2015-Mar-24 00:21N 50°32' E 001°02'1214.7
2015-Mar-23 23:33N 50°27' E 000°44'1716.5
2015-Mar-23 22:31N 50°23' E 000°19'  
Track history (hours):
 
Tides and Currents Weather Stations Pressure Air Temp Water Temp Dewpoint Dewpoint Depression Visibility Wind Speed Wind Dir Waves Ship Positions

MSC Ludovica

Last reported at 2015-Mar-29 03:31 UTC. Time now 2015-Mar-29 04:29 UTC.
Position N 53°35' E 008°32'.

Length 301 m; draft 11.1 m.

Type: Ship. MMSI: 351248000.

Date/timePositionNaut miles runAvg speedWind from/ knotsBaromVisibWave heightAir tempDewpointWater temp
2015-Mar-29 03:31N 53°35' E 008°32'0 0.0
2015-Mar-29 02:31N 53°35' E 008°32'0 0.0
2015-Mar-29 01:31N 53°35' E 008°32'0 0.0
2015-Mar-29 00:31N 53°35' E 008°32'0 0.0
2015-Mar-28 23:25N 53°35' E 008°32'0 0.0
2015-Mar-28 22:28N 53°35' E 008°32'0 0.0
2015-Mar-28 21:31N 53°35' E 008°32'0 0.0
2015-Mar-28 20:25N 53°35' E 008°32'0 0.1
2015-Mar-28 19:28N 53°35' E 008°32'0 0.1
2015-Mar-28 18:31N 53°35' E 008°32'0 0.0
2015-Mar-28 17:31N 53°35' E 008°32'0 0.0
2015-Mar-28 16:31N 53°35' E 008°32'0 0.0
2015-Mar-28 15:31N 53°35' E 008°32'0 0.0
2015-Mar-28 14:31N 53°35' E 008°32'0 0.0
2015-Mar-28 13:28N 53°35' E 008°32'0 0.0
2015-Mar-28 12:31N 53°35' E 008°32'0 0.0
2015-Mar-28 11:28N 53°35' E 008°32'0 0.0
2015-Mar-28 10:31N 53°35' E 008°32'0 0.0
2015-Mar-28 09:31N 53°35' E 008°32'0 0.0
2015-Mar-28 08:31N 53°35' E 008°32'0 0.0
2015-Mar-28 07:31N 53°35' E 008°32'0 0.0
2015-Mar-28 06:28N 53°35' E 008°32'0 0.0
2015-Mar-28 05:31N 53°35' E 008°32'0 0.0
2015-Mar-28 04:31N 53°35' E 008°32'0 0.3
2015-Mar-28 03:33N 53°35' E 008°32'1312.8
2015-Mar-28 02:33N 53°43' E 008°16'1716.5
2015-Mar-28 01:33N 53°52' E 007°52'1010.2
2015-Mar-28 00:33N 53°54' E 007°36'9 9.2
2015-Mar-27 23:33N 53°53' E 007°20'1210.9
2015-Mar-27 22:29N 53°51' E 007°01'1213.3
2015-Mar-27 21:33N 53°48' E 006°41'1413.6
2015-Mar-27 20:33N 53°45' E 006°18'1313.6
2015-Mar-27 19:33N 53°40' E 005°56'1313.5
2015-Mar-27 18:33N 53°36' E 005°35'1313.4
2015-Mar-27 17:34N 53°32' E 005°13'1313.1
2015-Mar-27 16:34N 53°27' E 004°53'1313.2
2015-Mar-27 15:33N 53°18' E 004°37'2913.8
2015-Mar-27 13:29N 52°52' E 004°16'3213.8
2015-Mar-27 11:10N 52°28' E 003°41'5214.3
2015-Mar-27 07:34N 52°12' E 002°21'1716.5
2015-Mar-27 06:33N 52°04' E 001°57'1716.5
2015-Mar-27 05:33N 51°49' E 001°48'1212.3
2015-Mar-27 04:33N 51°56' E 001°32'9 8.6
2015-Mar-27 03:31N 51°58' E 001°18'0 0.0
2015-Mar-27 02:31N 51°58' E 001°18'0 0.0
2015-Mar-27 01:31N 51°58' E 001°18'0 0.0
2015-Mar-27 00:31N 51°58' E 001°18'0 0.0
2015-Mar-26 23:31N 51°58' E 001°18'0 0.0
2015-Mar-26 22:31N 51°58' E 001°18'0 0.0
2015-Mar-26 21:31N 51°58' E 001°18'0 0.0
2015-Mar-26 20:31N 51°58' E 001°18'0 0.0
2015-Mar-26 19:31N 51°58' E 001°18'0 0.0
2015-Mar-26 18:31N 51°58' E 001°18'0 0.0
2015-Mar-26 17:31N 51°58' E 001°18'0 0.0
2015-Mar-26 16:31N 51°58' E 001°18'0 0.0
2015-Mar-26 15:31N 51°58' E 001°18'0 0.0
2015-Mar-26 14:31N 51°58' E 001°18'0 0.0
2015-Mar-26 13:31N 51°58' E 001°18'0 0.0
2015-Mar-26 12:31N 51°58' E 001°18'0 0.0
2015-Mar-26 11:31N 51°58' E 001°18'0 0.0
2015-Mar-26 10:31N 51°58' E 001°18'0 0.0
2015-Mar-26 09:31N 51°58' E 001°18'0 0.0
2015-Mar-26 08:31N 51°58' E 001°18'0 0.0
2015-Mar-26 07:31N 51°58' E 001°18'0 0.3
2015-Mar-26 06:34N 51°57' E 001°18'8 8.2
2015-Mar-26 05:33N 51°56' E 001°31'10 9.8
2015-Mar-26 04:33N 51°51' E 001°45'8 7.8
2015-Mar-26 03:34N 51°44' E 001°49'9 8.6
2015-Mar-26 02:34N 51°36' E 001°51'1414.5
2015-Mar-26 01:34N 51°24' E 002°06'1615.6
2015-Mar-26 00:34N 51°23' E 002°31'1515.2
2015-Mar-25 23:33N 51°25' E 002°55'1918.5
2015-Mar-25 22:34N 51°25' E 003°24'1313.3
2015-Mar-25 21:34N 51°22' E 003°45'1211.8
2015-Mar-25 20:34N 51°22' E 004°04'8 8.4
2015-Mar-25 19:34N 51°21' E 004°17'0 0.0
2015-Mar-25 18:34N 51°21' E 004°17'2 2.1
2015-Mar-25 17:30N 51°20' E 004°20'0 0.1
2015-Mar-25 16:33N 51°20' E 004°20'0 0.0
2015-Mar-25 15:33N 51°20' E 004°20'0 0.0
2015-Mar-25 14:33N 51°20' E 004°20'0 0.0
2015-Mar-25 13:33N 51°20' E 004°20'0 0.0
2015-Mar-25 12:33N 51°20' E 004°20'0 0.0
2015-Mar-25 11:33N 51°20' E 004°20'0 0.0
2015-Mar-25 10:33N 51°20' E 004°20'0 0.0
2015-Mar-25 09:33N 51°20' E 004°20'0 0.0
2015-Mar-25 08:33N 51°20' E 004°20'0 0.0
2015-Mar-25 07:33N 51°20' E 004°20'0 0.0
2015-Mar-25 06:33N 51°20' E 004°20'0 0.0
2015-Mar-25 05:33N 51°20' E 004°20'0 0.0
2015-Mar-25 04:33N 51°20' E 004°20'0 0.0
2015-Mar-25 03:27N 51°20' E 004°20'0 0.0
2015-Mar-25 02:33N 51°20' E 004°20'0 0.0
2015-Mar-25 01:33N 51°20' E 004°20'0 0.0
2015-Mar-25 00:33N 51°20' E 004°20'0 0.0
2015-Mar-24 23:33N 51°20' E 004°20'0 0.0
2015-Mar-24 22:30N 51°20' E 004°20'0 0.0
2015-Mar-24 21:33N 51°20' E 004°20'0 0.0
2015-Mar-24 20:33N 51°20' E 004°20'0 0.0
2015-Mar-24 19:27N 51°20' E 004°20'0 0.0
2015-Mar-24 18:30N 51°20' E 004°20'0 0.0
2015-Mar-24 17:33N 51°20' E 004°20'0 0.3
2015-Mar-24 16:33N 51°20' E 004°20'2 1.9
2015-Mar-24 15:31N 51°21' E 004°17'0 0.5
2015-Mar-24 14:34N 51°21' E 004°17'5 4.8
2015-Mar-24 13:34N 51°23' E 004°10'9 9.3
2015-Mar-24 12:33N 51°22' E 003°55'1212.4
2015-Mar-24 11:34N 51°26' E 003°36'1010.1
2015-Mar-24 10:33N 51°24' E 003°20'1211.7
2015-Mar-24 09:33N 51°25' E 003°01'1111.4
2015-Mar-24 08:33N 51°23' E 002°43'8 3.8
2015-Mar-24 06:27N 51°22' E 002°31'8 8.2
2015-Mar-24 05:31N 51°19' E 002°20'1010.0
2015-Mar-24 04:34N 51°14' E 002°06'1312.8
2015-Mar-24 03:33N 51°08' E 001°48'1514.8
2015-Mar-24 02:33N 50°58' E 001°31'1615.0
2015-Mar-24 01:31N 50°44' E 001°21'1714.8
2015-Mar-24 00:21N 50°32' E 001°02'1214.7
2015-Mar-23 23:33N 50°27' E 000°44'1716.5
2015-Mar-23 22:31N 50°23' E 000°19'  

Dump ship's entire track history